Nearby METAR Reports

 

KSJC - San Jose, California, USA
Distance from station: NE 9mi, 14km
Updated: Thu, 26-Nov-2020 3:53pm PST
Few Clouds
Few Clouds
 Wind from N
Wind: N 7 mph , 11 km/h
Temperature: 63°F , 17°C
Dew Point: 21°F , -6°C
Humidity: 20%
Barometer: 30.17 inHg , 1021.7 hPa
Clouds: Few Clouds
Visibility: 10 miles , 16 km
Cloud details: Few Clouds 6000 ft
Few Clouds 8500 ft
2020/11/26 23:53 KSJC 262353Z 36006KT 10SM FEW060 FEW085 17/M06 A3017 RMK AO2 SLP215 T01721056 10183 20139 55003
KNUQ - Moffett Nas/Mtn, California, USA
Distance from station: N 9mi, 14km
Updated: Sun, 15-Nov-2020 2:00am PST
NOT Current
Clear
Clear
 Wind from calm
Wind: Calm
Temperature: 43°F , 6°C
Dew Point: 41°F , 5°C
Humidity: 93%
Barometer: 30.28 inHg , 1025.4 hPa
Clouds: Clear
Visibility: 10 miles , 16 km
2020/11/15 10:00 KNUQ 151000Z AUTO 00000KT 10SM CLR 06/05 A3028 RMK AO2
KPAO - Palo Alto, California, USA
Distance from station: NNW 14mi, 23km
Updated: Thu, 26-Nov-2020 3:47pm PST
Clear
Clear
 Wind from N
Wind: N 9 mph , 15 km/h
Temperature: 61°F , 16°C
Dew Point: 36°F , 2°C
Humidity: 39%
Barometer: 30.18 inHg , 1022 hPa
Clouds: Clear
Visibility: 10 miles , 16 km
2020/11/26 23:47 KPAO 262347Z 01008KT 10SM SKC 16/02 A3018
 
KRHV - San Jose/Reid, California, USA
Distance from station: ENE 12mi, 19km
Updated: Thu, 26-Nov-2020 1:56pm PST
NOT Current
Clear
Clear
 Wind from NNW
Wind: NNW 14 mph , 22 km/h, Gust: 25 mph , 41 km/h
Temperature: 64°F , 18°C
Dew Point: 25°F , -4°C
Humidity: 22%
Barometer: 30.15 inHg , 1021 hPa
Clouds: Clear
Visibility: 10 miles , 16 km
2020/11/26 21:56 KRHV 262156Z 34012G22KT 10SM SKC 18/M04 A3015
KOAK - Oakland, California, USA
Distance from station: NNW 31mi, 50km
Updated: Thu, 26-Nov-2020 3:53pm PST
Few Clouds
Few Clouds
 Wind from NNE
Wind: NNE 12 mph , 19 km/h
Temperature: 66°F , 19°C
Dew Point: 23°F , -5°C
Humidity: 19%
Barometer: 30.19 inHg , 1022.4 hPa
Clouds: Few Clouds
Visibility: 10 miles , 16 km
Cloud details: Few Clouds 9000 ft
2020/11/26 23:53 KOAK 262353Z 02010KT 10SM FEW090 19/M05 A3019 RMK AO2 PK WND 03029/2258 SLP222 T01891050 10206 20161 55004
KSQL - San Carlos Airpo, California, USA
Distance from station: NW 21mi, 34km
Updated: Thu, 26-Nov-2020 3:58pm PST
Clear
Clear
 Wind from N
Wind: N 10 mph , 17 km/h
Temperature: 61°F , 16°C
Dew Point: 32°F , 0°C
Humidity: 34%
Barometer: 30.19 inHg , 1022.4 hPa
Clouds: Clear
Visibility: 10 miles , 16 km
2020/11/26 23:58 KSQL 262358Z 36009KT 10SM SKC 16/00 A3019
 
KSFO - San Francisco, California, USA
Distance from station: NW 30mi, 49km
Updated: Thu, 26-Nov-2020 3:56pm PST
Few Clouds
Few Clouds
 Wind from NNE
Wind: NNE 3 mph , 6 km/h
Temperature: 61°F , 16°C
Dew Point: 39°F , 4°C
Humidity: 45%
Barometer: 30.18 inHg , 1022 hPa
Clouds: Few Clouds
Visibility: 10 miles , 16 km
Cloud details: Few Clouds 20000 ft
2020/11/26 23:56 KSFO 262356Z 03003KT 10SM FEW200 16/04 A3018 RMK AO2 SLP219 T01610044 10172 20133 55003
KE16 - San Martin, California, USA
Distance from station: ESE 27mi, 43km
Updated: Thu, 26-Nov-2020 4:15pm PST
Clear
Clear
 Wind from N
Wind: N 6 mph , 9 km/h
Temperature: 63°F , 17°C
Dew Point: 21°F , -6°C
Humidity: 20%
Barometer: 30.17 inHg , 1021.7 hPa
Clouds: Clear
Visibility: 10 miles , 16 km
2020/11/27 00:15 KE16 270015Z AUTO 35005KT 10SM CLR 17/M06 A3017 RMK AO2
KWVI - Watsonville, California, USA
Distance from station: SSE 27mi, 44km
Updated: Thu, 26-Nov-2020 3:53pm PST
Clear
Clear
 Wind from W
Wind: W 5 mph , 7 km/h
Temperature: 61°F , 16°C
Dew Point: 34°F , 1°C
Humidity: 36%
Barometer: 30.15 inHg , 1021 hPa
Clouds: Clear
Visibility: 10 miles , 16 km
2020/11/26 23:53 KWVI 262353Z AUTO 27004KT 10SM CLR 16/01 A3015 RMK AO2 SLP210 T01610011 10183 20133 55002
 
KHAF - Half Moon Bay, California, USA
Distance from station: WNW 31mi, 50km
Updated: Thu, 26-Nov-2020 4:15pm PST
Clear
Clear
 Wind from NNE
Wind: NNE 5 mph , 7 km/h, Gust: 17 mph , 28 km/h
Temperature: 63°F , 17°C
Dew Point: 25°F , -4°C
Humidity: 24%
Barometer: 30.18 inHg , 1022 hPa
Clouds: Clear
Visibility: 10 miles , 16 km
2020/11/27 00:15 KHAF 270015Z AUTO 03004G15KT 10SM CLR 17/M04 A3018 RMK AO2
KHWD - Hayward, California, USA
Distance from station: N 28mi, 44km
Updated: Thu, 26-Nov-2020 3:54pm PST
Clear
Clear
 Wind from NE
Wind: NE 13 mph , 20 km/h
Temperature: 64°F , 18°C
Dew Point: 23°F , -5°C
Humidity: 21%
Barometer: 30.17 inHg , 1021.7 hPa
Clouds: Clear
Visibility: 10 miles , 16 km
2020/11/26 23:54 KHWD 262354Z 04011KT 10SM CLR 18/M05 A3017 RMK AO2 SLP227 T01831050 10194 20156 56003
KLVK - Livermore, California, USA
Distance from station: NNE 31mi, 51km
Updated: Thu, 26-Nov-2020 3:53pm PST
Clear
Clear
 Wind from NNE
Wind: NNE 12 mph , 19 km/h, Gust: 20 mph , 31 km/h
Temperature: 61°F , 16°C
Dew Point: 21°F , -6°C
Humidity: 22%
Barometer: 30.18 inHg , 1022 hPa
Clouds: Clear
Visibility: 10 miles , 16 km
2020/11/26 23:53 KLVK 262353Z 03010G17KT 10SM CLR 16/M06 A3018 RMK AO2 SLP218 T01611056 10167 20133 55004